Terminal Aerodrome Forecast
Issued by NWS Knoxville/Tri Cities, TN

Home | Current Version | Previous Version | Text Only | Print | Product List | Glossary On
Versions: 1 2 3 4 5 6 7 8 9 10 11 12 13
000
FTUS44 KMRX 240537
TAFTYS
TAF
KTYS 240537Z 2406/2506 VRB03KT P6SM FEW050
     FM241400 23006KT P6SM SCT050 BKN250
     FM250100 22004KT P6SM FEW060 SCT150=

USA.gov is the U.S. government's official web portal to all federal, state and local government web resources and services.